createdAt,value
2018-04-19T00:02:01.155Z,32.30
2018-04-19T00:04:29.428Z,33.92
2018-04-19T00:06:58.226Z,34.92
2018-04-19T00:09:25.739Z,33.95
2018-04-19T00:11:54.028Z,34.47
2018-04-19T00:14:21.541Z,30.15
2018-04-19T00:16:49.086Z,32.00
2018-04-19T00:19:17.256Z,34.75
2018-04-19T00:21:44.801Z,38.13
2018-04-19T00:24:13.100Z,34.85
2018-04-19T00:26:40.634Z,35.90
2018-04-19T00:29:08.965Z,37.92
2018-04-19T00:31:36.484Z,35.90
2018-04-19T00:34:04.796Z,36.50
2018-04-19T00:36:32.327Z,40.85
2018-04-19T00:38:59.856Z,37.83
2018-04-19T00:41:27.382Z,40.25
2018-04-19T00:43:55.347Z,33.85
2018-04-19T00:46:22.868Z,38.97
2018-04-19T00:48:51.157Z,40.22
2018-04-19T00:51:18.683Z,45.08
2018-04-19T00:53:46.257Z,44.10
2018-04-19T01:09:18.829Z,41.37
2018-04-19T01:11:47.121Z,45.40
2018-04-19T01:14:14.632Z,42.62
2018-04-19T01:16:42.167Z,43.20
2018-04-19T01:19:09.733Z,45.30
2018-04-19T01:21:37.264Z,46.00
2018-04-19T01:24:04.781Z,44.33
2018-04-19T01:26:32.344Z,42.30
2018-04-19T01:28:59.855Z,44.47
2018-04-19T01:31:27.375Z,43.58
2018-04-19T01:33:56.004Z,41.63
2018-04-19T01:36:25.484Z,45.45
2018-04-19T01:38:53.033Z,41.30
2018-04-19T01:41:21.323Z,47.28
2018-04-19T01:43:49.764Z,47.70
2018-04-19T01:46:17.280Z,44.17
2018-04-19T01:48:44.825Z,50.30
2018-04-19T01:51:12.379Z,45.47
2018-04-19T01:53:39.903Z,49.15
2018-04-19T01:56:07.438Z,51.40
2018-04-19T01:58:34.966Z,48.42
2018-04-19T02:01:02.494Z,50.67
2018-04-19T02:03:30.779Z,52.17
2018-04-19T02:05:59.079Z,48.00
2018-04-19T02:08:27.422Z,51.53
2018-04-19T02:10:54.984Z,51.63
2018-04-19T02:13:22.499Z,50.92
2018-04-19T02:15:50.785Z,49.17
2018-04-19T02:18:18.288Z,48.15
2018-04-19T02:20:46.567Z,49.00
2018-04-19T02:23:14.873Z,50.47
2018-04-19T02:25:42.395Z,52.33
2018-04-19T02:28:10.694Z,46.92
2018-04-19T02:30:38.220Z,45.65
2018-04-19T02:33:05.768Z,49.03
2018-04-19T02:35:33.293Z,53.83
2018-04-19T02:38:00.815Z,51.65
2018-04-19T02:40:29.100Z,49.97
2018-04-19T02:42:57.400Z,51.10
2018-04-19T02:45:24.920Z,51.43
2018-04-19T02:47:53.226Z,49.78
2018-04-19T02:50:20.764Z,58.50
2018-04-19T02:52:49.056Z,56.40
2018-04-19T02:55:17.359Z,56.90
2018-04-19T02:57:45.131Z,58.13
2018-04-19T03:00:12.671Z,52.90
2018-04-19T03:02:40.219Z,53.70
2018-04-19T03:05:08.523Z,52.57
2018-04-19T03:07:36.049Z,52.97
2018-04-19T03:10:04.344Z,53.53
2018-04-19T03:12:31.943Z,54.30
2018-04-19T03:14:59.481Z,54.07
2018-04-19T03:17:27.093Z,50.72
2018-04-19T03:19:54.640Z,50.40
2018-04-19T03:22:22.279Z,53.80
2018-04-19T03:24:49.836Z,53.40
2018-04-19T03:27:18.134Z,49.47
2018-04-19T03:29:45.675Z,53.53
2018-04-19T03:32:13.938Z,48.27
2018-04-19T03:34:41.460Z,50.30
2018-04-19T03:37:09.752Z,48.47
2018-04-19T03:39:37.276Z,54.43
2018-04-19T03:42:04.807Z,52.00
2018-04-19T03:44:33.379Z,49.47
2018-04-19T03:47:00.910Z,50.63
2018-04-19T03:49:28.446Z,54.27
2018-04-19T03:51:55.976Z,52.57
2018-04-19T03:54:23.520Z,50.30
2018-04-19T03:56:51.036Z,51.90
2018-04-19T03:59:19.330Z,53.90
2018-04-19T04:01:46.870Z,56.47
2018-04-19T04:04:15.215Z,53.90
2018-04-19T04:06:42.748Z,55.87
2018-04-19T04:09:10.286Z,56.90
2018-04-19T04:11:37.812Z,53.60
2018-04-19T04:14:05.341Z,56.43
2018-04-19T04:19:56.761Z,55.10
2018-04-19T04:22:36.165Z,56.00
2018-04-19T04:25:04.477Z,54.90
2018-04-19T04:27:31.999Z,56.37
2018-04-19T04:30:00.303Z,51.67
2018-04-19T04:32:27.813Z,51.10
2018-04-19T04:34:55.364Z,49.73
2018-04-19T04:37:23.317Z,49.20
2018-04-19T04:39:52.065Z,50.23
2018-04-19T04:42:20.374Z,53.07
2018-04-19T04:44:47.892Z,56.57
2018-04-19T04:47:16.179Z,54.10
2018-04-19T04:49:44.461Z,54.00
2018-04-19T04:52:12.760Z,57.67
2018-04-19T04:54:40.301Z,52.87
2018-04-19T04:57:08.155Z,54.33
2018-04-19T04:59:36.497Z,51.23
2018-04-19T05:02:04.033Z,53.13
2018-04-19T05:04:31.547Z,57.17
2018-04-19T05:06:59.851Z,57.37
2018-04-19T05:09:27.912Z,54.67
2018-04-19T05:11:55.426Z,54.33
2018-04-19T05:14:23.036Z,52.10
2018-04-19T05:16:50.567Z,53.80
2018-04-19T05:19:18.847Z,56.97
2018-04-19T05:21:47.139Z,54.47
2018-04-19T05:24:15.439Z,54.47
2018-04-19T05:26:42.946Z,56.47
2018-04-19T05:29:10.468Z,50.07
2018-04-19T05:31:38.125Z,52.83
2018-04-19T05:34:05.723Z,51.73
2018-04-19T05:36:33.338Z,49.53
2018-04-19T05:39:00.926Z,50.87
2018-04-19T05:41:29.232Z,51.27
2018-04-19T05:43:56.749Z,45.67
2018-04-19T05:46:24.294Z,47.07
2018-04-19T05:48:51.812Z,49.53
2018-04-19T05:51:19.352Z,49.40
2018-04-19T05:53:46.876Z,45.30
2018-04-19T05:56:14.408Z,45.87
2018-04-19T05:58:42.862Z,45.12
2018-04-19T06:01:10.401Z,42.63
2018-04-19T06:03:37.928Z,41.97
2018-04-19T06:06:05.489Z,42.45
2018-04-19T06:08:32.996Z,42.08
2018-04-19T06:11:00.542Z,35.53
2018-04-19T06:13:28.089Z,38.88
2018-04-19T06:15:55.612Z,39.50
2018-04-19T06:18:23.909Z,38.05
2018-04-19T06:20:51.420Z,39.47
2018-04-19T06:23:18.952Z,36.28
2018-04-19T06:25:46.485Z,40.03
2018-04-19T06:28:14.008Z,37.95
2018-04-19T06:30:42.295Z,37.40
2018-04-19T06:33:10.605Z,35.50
2018-04-19T06:35:38.166Z,34.70
2018-04-19T06:38:05.740Z,35.78
2018-04-19T06:40:33.352Z,37.65
2018-04-19T06:43:01.644Z,34.83
2018-04-19T06:45:29.181Z,32.80
2018-04-19T06:47:57.468Z,33.85
2018-04-19T06:50:25.759Z,33.90
2018-04-19T06:52:54.041Z,32.67
2018-04-19T06:55:22.383Z,34.33
2018-04-19T06:57:49.895Z,31.60
2018-04-19T07:00:17.426Z,33.38
2018-04-19T07:02:45.715Z,30.65
2018-04-19T07:05:13.285Z,30.50
2018-04-19T07:07:40.795Z,31.50
2018-04-19T07:10:08.299Z,32.58
2018-04-19T07:12:36.361Z,30.52
2018-04-19T07:15:03.899Z,30.23
2018-04-19T07:17:32.226Z,29.50
2018-04-19T07:20:00.852Z,30.05
2018-04-19T07:22:29.087Z,31.35
2018-04-19T07:24:56.599Z,29.08
2018-04-19T07:27:25.021Z,28.33
2018-04-19T07:29:52.590Z,29.55
2018-04-19T07:32:20.117Z,26.87
2018-04-19T07:34:48.400Z,30.10
2018-04-19T07:37:15.954Z,30.52
2018-04-19T07:39:43.502Z,28.40
2018-04-19T07:42:57.568Z,27.25
2018-04-19T07:45:25.105Z,28.62
2018-04-19T07:47:53.392Z,26.23
2018-04-19T07:50:21.807Z,27.83
2018-04-19T07:52:50.261Z,27.62
2018-04-19T07:55:17.833Z,28.73
2018-04-19T07:57:45.370Z,26.95
2018-04-19T08:00:13.680Z,28.08
2018-04-19T08:02:41.213Z,26.85
2018-04-19T08:05:09.626Z,28.00
2018-04-19T08:07:37.155Z,28.48
2018-04-19T08:10:04.796Z,26.58
2018-04-19T08:12:33.169Z,24.23
2018-04-19T08:15:00.861Z,23.90
2018-04-19T08:17:29.263Z,26.08
2018-04-19T08:19:56.928Z,25.77
2018-04-19T08:22:24.511Z,25.02
2018-04-19T08:24:52.129Z,26.02
2018-04-19T08:27:19.688Z,24.60
2018-04-19T08:29:47.212Z,25.00
2018-04-19T08:32:14.735Z,24.12
2018-04-19T08:34:42.265Z,26.05
2018-04-19T08:37:09.796Z,25.20
2018-04-19T08:39:38.015Z,24.63
2018-04-19T08:42:05.570Z,23.30
2018-04-19T08:44:33.863Z,25.15
2018-04-19T08:47:01.380Z,20.98
2018-04-19T08:49:29.687Z,23.48
2018-04-19T08:51:57.319Z,22.90
2018-04-19T08:54:25.743Z,23.45
2018-04-19T08:56:53.271Z,22.52
2018-04-19T08:59:20.912Z,21.42
2018-04-19T09:01:48.448Z,23.77
2018-04-19T09:04:15.979Z,21.92
2018-04-19T09:06:44.215Z,20.50
2018-04-19T09:09:12.521Z,21.80
2018-04-19T09:11:40.058Z,21.37
2018-04-19T09:14:08.379Z,20.83
2018-04-19T09:16:35.939Z,20.05
2018-04-19T09:19:03.487Z,20.55
2018-04-19T09:21:31.007Z,20.00
2018-04-19T09:23:59.298Z,21.02
2018-04-19T09:26:27.715Z,22.13
2018-04-19T09:28:55.409Z,20.90
2018-04-19T09:31:24.455Z,20.23
2018-04-19T09:33:52.759Z,21.55
2018-04-19T09:36:20.286Z,21.23
2018-04-19T09:38:47.858Z,19.55
2018-04-19T09:41:15.395Z,21.37
2018-04-19T09:43:42.931Z,23.25
2018-04-19T09:46:10.478Z,22.17
2018-04-19T09:48:38.032Z,21.40
2018-04-19T09:51:05.597Z,19.70
2018-04-19T09:53:33.132Z,22.37
2018-04-19T09:56:00.679Z,20.35
2018-04-19T09:58:28.330Z,20.62
2018-04-19T10:01:01.598Z,23.40
2018-04-19T10:03:29.894Z,21.02
2018-04-19T10:06:00.408Z,20.10
2018-04-19T10:08:28.705Z,21.40
2018-04-19T10:10:56.259Z,24.75
2018-04-19T10:13:24.212Z,22.75
2018-04-19T10:15:52.520Z,23.65
2018-04-19T10:18:20.062Z,21.42
2018-04-19T10:20:47.593Z,19.92
2018-04-19T10:23:15.830Z,20.60
2018-04-19T10:25:43.388Z,22.20
2018-04-19T10:28:11.606Z,20.65
2018-04-19T10:30:39.903Z,22.30
2018-04-19T10:33:08.300Z,22.37
2018-04-19T10:35:36.105Z,25.15
2018-04-19T10:38:03.632Z,22.27
2018-04-19T10:40:31.158Z,25.02
2018-04-19T10:42:59.460Z,22.65
2018-04-19T10:45:27.009Z,26.10
2018-04-19T10:47:55.259Z,23.08
2018-04-19T10:50:22.771Z,22.92
2018-04-19T10:52:50.344Z,22.80
2018-04-19T10:55:17.887Z,26.52
2018-04-19T10:57:45.455Z,21.83
2018-04-19T11:00:12.978Z,21.70
2018-04-19T11:02:41.271Z,21.02
2018-04-19T11:05:08.799Z,25.73
2018-04-19T11:07:36.343Z,25.35
2018-04-19T11:10:03.924Z,23.70
2018-04-19T11:12:32.202Z,24.20
2018-04-19T11:15:00.510Z,23.62
2018-04-19T11:17:28.053Z,22.25
2018-04-19T11:19:55.649Z,25.42
2018-04-19T11:22:23.188Z,22.58
2018-04-19T11:24:50.800Z,26.25
2018-04-19T11:27:18.319Z,24.00
2018-04-19T11:29:45.918Z,23.10
2018-04-19T11:32:13.470Z,24.55
2018-04-19T11:34:41.026Z,17.05
2018-04-19T11:37:08.566Z,26.10
2018-04-19T11:39:36.091Z,22.08
2018-04-19T11:42:03.877Z,26.98
2018-04-19T11:44:31.412Z,26.58
2018-04-19T11:46:59.728Z,26.02
2018-04-19T11:49:27.243Z,26.55
2018-04-19T11:51:55.546Z,26.65
2018-04-19T11:54:23.071Z,28.15
2018-04-19T11:56:51.391Z,25.35
2018-04-19T11:59:18.922Z,31.30
2018-04-19T12:01:47.820Z,29.63
2018-04-19T12:04:15.340Z,27.67
2018-04-19T12:06:42.889Z,26.62
2018-04-19T12:09:10.433Z,23.77
2018-04-19T12:11:37.984Z,24.90
2018-04-19T12:14:05.540Z,25.67
2018-04-19T12:16:33.067Z,24.92
2018-04-19T12:19:01.487Z,25.45
2018-04-19T12:21:29.016Z,29.60
2018-04-19T12:23:57.264Z,22.00
2018-04-19T12:26:24.787Z,25.15
2018-04-19T12:28:52.433Z,20.88
2018-04-19T12:31:19.949Z,21.87
2018-04-19T12:33:47.481Z,22.33
2018-04-19T12:36:15.041Z,22.15
2018-04-19T12:38:42.574Z,24.12
2018-04-19T12:41:10.137Z,25.10
2018-04-19T12:43:37.656Z,19.80
2018-04-19T12:46:05.955Z,18.87
2018-04-19T12:48:33.608Z,15.90
2018-04-19T12:51:02.440Z,15.32
2018-04-19T12:53:29.963Z,21.45
2018-04-19T12:55:57.499Z,21.08
2018-04-19T12:58:25.095Z,15.18
2018-04-19T13:00:52.616Z,18.48
2018-04-19T13:03:20.171Z,12.00
2018-04-19T13:05:47.693Z,14.10
2018-04-19T13:08:15.304Z,11.45
2018-04-19T13:10:43.619Z,15.90
2018-04-19T13:13:11.221Z,13.88
2018-04-19T13:15:38.944Z,13.93
2018-04-19T13:18:06.483Z,14.75
2018-04-19T13:20:34.775Z,12.43
2018-04-19T13:23:02.319Z,14.80
2018-04-19T13:25:29.848Z,18.73
2018-04-19T13:27:57.406Z,16.35
2018-04-19T13:30:24.954Z,17.75
2018-04-19T13:32:52.466Z,14.55
2018-04-19T13:35:19.984Z,19.50
2018-04-19T13:37:47.510Z,19.60
2018-04-19T13:40:15.080Z,18.35
2018-04-19T13:42:42.649Z,21.17
2018-04-19T13:45:10.221Z,17.45
2018-04-19T13:47:37.836Z,18.52
2018-04-19T13:50:06.307Z,20.75
2018-04-19T13:52:33.860Z,17.50
2018-04-19T13:55:02.207Z,14.87
2018-04-19T13:57:29.922Z,16.33
2018-04-19T13:59:57.464Z,15.15
2018-04-19T14:02:24.993Z,14.77
2018-04-19T14:04:52.524Z,19.10
2018-04-19T14:07:20.764Z,18.27
2018-04-19T14:09:48.290Z,18.48
2018-04-19T14:12:15.816Z,19.75
2018-04-19T14:14:43.402Z,17.05
2018-04-19T14:17:11.499Z,15.15
2018-04-19T14:19:39.794Z,16.70
2018-04-19T14:22:07.350Z,17.77
2018-04-19T14:24:34.859Z,18.92
2018-04-19T14:27:02.411Z,17.83
2018-04-19T14:29:29.943Z,17.08
2018-04-19T14:31:57.496Z,17.95
2018-04-19T14:34:25.122Z,17.20
2018-04-19T14:36:52.661Z,16.15
2018-04-19T14:39:20.240Z,19.20
2018-04-19T14:41:47.783Z,18.15
2018-04-19T14:44:16.472Z,15.68
2018-04-19T14:46:44.734Z,20.20
2018-04-19T14:49:16.673Z,18.90
2018-04-19T14:51:44.949Z,17.20
2018-04-19T14:54:12.524Z,16.48
2018-04-19T14:56:40.103Z,17.08
2018-04-19T14:59:07.663Z,19.25
2018-04-19T15:01:35.258Z,14.75
2018-04-19T15:04:03.552Z,12.57
2018-04-19T15:06:31.119Z,10.48
2018-04-19T15:09:02.531Z,13.75
2018-04-19T15:11:30.117Z,10.70
2018-04-19T15:13:58.411Z,10.35
2018-04-19T15:16:25.936Z,9.25
2018-04-19T15:18:54.253Z,8.50
2018-04-19T15:21:21.812Z,10.82
2018-04-19T15:23:49.377Z,10.27
2018-04-19T15:26:16.899Z,19.08
2018-04-19T15:28:45.222Z,10.98
2018-04-19T15:31:12.757Z,8.25
2018-04-19T15:33:40.304Z,7.40
2018-04-19T15:36:08.583Z,9.70
2018-04-19T15:38:36.990Z,7.97
2018-04-19T15:41:05.500Z,12.23
2018-04-19T15:43:33.071Z,12.77
2018-04-19T15:46:00.605Z,9.82
2018-04-19T15:48:28.129Z,9.32
2018-04-19T15:50:55.901Z,9.38
2018-04-19T15:53:23.442Z,10.10
2018-04-19T15:55:51.754Z,8.35
2018-04-19T15:58:19.802Z,9.23
2018-04-19T16:00:47.364Z,8.68
2018-04-19T16:03:14.901Z,9.50
2018-04-19T16:05:43.437Z,9.63
2018-04-19T16:08:11.014Z,10.18
2018-04-19T16:10:38.633Z,13.52
2018-04-19T16:13:06.185Z,13.60
2018-04-19T16:15:33.748Z,9.73
2018-04-19T16:18:01.315Z,11.12
2018-04-19T16:20:28.833Z,10.35
2018-04-19T16:22:56.394Z,8.75
2018-04-19T16:25:23.928Z,10.95
2018-04-19T16:27:51.493Z,12.37
2018-04-19T16:30:19.043Z,12.63
2018-04-19T16:32:46.567Z,10.73
2018-04-19T16:35:14.098Z,14.43
2018-04-19T16:37:41.631Z,16.77
2018-04-19T16:40:11.816Z,17.30
2018-04-19T16:42:39.330Z,19.62
2018-04-19T16:45:06.936Z,17.33
2018-04-19T16:47:35.085Z,18.27
2018-04-19T16:50:02.585Z,19.37
2018-04-19T16:52:30.100Z,20.17
2018-04-19T16:54:58.378Z,18.75
2018-04-19T16:57:26.693Z,23.67
2018-04-19T16:59:54.222Z,19.90
2018-04-19T17:02:23.396Z,21.75
2018-04-19T17:04:50.931Z,20.95
2018-04-19T17:07:18.468Z,18.80
2018-04-19T17:09:45.991Z,22.23
2018-04-19T17:12:14.291Z,19.92
2018-04-19T17:14:41.840Z,20.55
2018-04-19T17:17:09.451Z,22.77
2018-04-19T17:22:11.713Z,25.37
2018-04-19T17:24:39.244Z,23.50
2018-04-19T17:27:07.558Z,26.05
2018-04-19T17:29:35.162Z,25.85
2018-04-19T17:32:02.742Z,25.50
2018-04-19T17:34:31.048Z,27.02
2018-04-19T17:36:58.588Z,26.00
2018-04-19T17:39:26.528Z,27.13
2018-04-19T17:41:54.101Z,24.52
2018-04-19T17:44:23.750Z,26.75
2018-04-19T17:46:54.020Z,24.33
2018-04-19T17:49:21.872Z,25.12
2018-04-19T17:51:49.404Z,23.10
2018-04-19T17:54:16.958Z,26.45
2018-04-19T17:56:44.525Z,24.42
2018-04-19T17:59:12.060Z,23.17
2018-04-19T18:01:39.676Z,27.83
2018-04-19T18:04:07.269Z,24.40
2018-04-19T18:06:35.584Z,24.92
2018-04-19T18:09:03.116Z,28.20
2018-04-19T18:11:30.711Z,30.40
2018-04-19T18:13:59.191Z,25.50
2018-04-19T18:16:26.778Z,27.02
2018-04-19T18:18:54.289Z,30.42
2018-04-19T18:21:22.728Z,24.42
2018-04-19T18:23:50.293Z,25.33
2018-04-19T18:26:18.613Z,24.63
2018-04-19T18:28:46.150Z,26.27
2018-04-19T18:31:14.444Z,24.67
2018-04-19T18:33:41.985Z,26.65
2018-04-19T18:36:10.286Z,25.70
2018-04-19T18:38:37.851Z,25.08
2018-04-19T18:41:05.367Z,25.75
2018-04-19T18:43:33.682Z,26.30
2018-04-19T18:46:01.219Z,25.95
2018-04-19T18:48:29.682Z,25.92
2018-04-19T18:50:57.259Z,27.90
2018-04-19T18:53:25.854Z,27.08
2018-04-19T18:55:54.056Z,28.08
2018-04-19T18:58:21.605Z,28.00
2018-04-19T19:00:49.166Z,25.75
2018-04-19T19:03:16.693Z,26.60
2018-04-19T19:05:45.013Z,32.78
2018-04-19T19:08:12.545Z,30.80
2018-04-19T19:10:40.193Z,25.08
2018-04-19T19:13:08.507Z,29.58
2018-04-19T19:19:05.911Z,29.10
2018-04-19T19:21:33.489Z,29.50
2018-04-19T19:24:01.655Z,26.67
2018-04-19T19:26:29.195Z,31.60
2018-04-19T19:28:56.732Z,30.70
2018-04-19T19:31:24.964Z,26.83
2018-04-19T19:33:52.492Z,27.80
2018-04-19T19:36:20.030Z,29.10
2018-04-19T19:38:48.831Z,24.05
2018-04-19T19:41:16.368Z,26.62
2018-04-19T19:43:43.930Z,28.75
2018-04-19T19:46:11.482Z,29.10
2018-04-19T19:48:39.861Z,24.75
2018-04-19T19:51:11.367Z,30.02
2018-04-19T19:53:38.894Z,28.02
2018-04-19T19:56:06.433Z,28.92
2018-04-19T19:58:33.963Z,25.52
2018-04-19T20:01:01.514Z,24.30
2018-04-19T20:03:29.481Z,27.80
2018-04-19T20:05:57.037Z,25.75
2018-04-19T20:08:24.607Z,27.23
2018-04-19T20:10:52.147Z,25.62
2018-04-19T20:13:19.697Z,28.92
2018-04-19T20:15:47.592Z,25.50
2018-04-19T20:18:15.140Z,28.45
2018-04-19T20:20:42.872Z,29.48
2018-04-19T20:23:10.489Z,27.75
2018-04-19T20:25:39.280Z,25.75
2018-04-19T20:28:11.868Z,24.67
2018-04-19T20:30:40.189Z,27.77
2018-04-19T20:33:07.741Z,28.02
2018-04-19T20:35:35.921Z,36.92
2018-04-19T20:38:03.426Z,24.60
2018-04-19T20:40:30.947Z,24.42
2018-04-19T20:42:58.480Z,24.83
2018-04-19T20:45:26.012Z,26.25
2018-04-19T20:47:53.612Z,24.05
2018-04-19T20:50:21.144Z,23.25
2018-04-19T20:52:49.430Z,26.12
2018-04-19T20:55:17.012Z,24.05
2018-04-19T20:57:44.577Z,24.10
2018-04-19T21:00:12.141Z,25.55
2018-04-19T21:02:39.692Z,25.20
2018-04-19T21:05:07.346Z,40.45
2018-04-19T21:07:34.897Z,35.15
2018-04-19T21:10:02.464Z,24.48
2018-04-19T21:12:30.209Z,22.37
2018-04-19T21:14:58.660Z,24.52
2018-04-19T21:17:26.285Z,24.52
2018-04-19T21:19:53.863Z,26.23
2018-04-19T21:22:21.482Z,26.70
2018-04-19T21:24:49.016Z,30.73
2018-04-19T21:27:17.322Z,31.52
2018-04-19T21:29:44.831Z,25.37
2018-04-19T21:32:12.416Z,22.87
2018-04-19T21:34:40.711Z,21.83
2018-04-19T21:37:08.231Z,25.83
2018-04-19T21:39:35.759Z,22.40
2018-04-19T21:42:03.341Z,25.10
2018-04-19T21:44:30.868Z,20.90
2018-04-19T21:46:58.408Z,23.83
2018-04-19T21:49:25.958Z,24.23
2018-04-19T21:51:54.421Z,21.98
2018-04-19T21:54:21.996Z,33.30
2018-04-19T21:56:50.312Z,25.00
2018-04-19T21:59:17.875Z,21.85
2018-04-19T22:01:45.424Z,24.73
2018-04-19T22:04:12.969Z,25.52
2018-04-19T22:06:40.518Z,23.33
2018-04-19T22:09:08.816Z,22.73
2018-04-19T22:11:36.331Z,24.37
2018-04-19T22:14:03.888Z,22.80
2018-04-19T22:16:31.413Z,25.45
2018-04-19T22:18:58.978Z,23.52
2018-04-19T22:21:26.544Z,22.17
2018-04-19T22:23:54.162Z,21.48
2018-04-19T22:26:26.446Z,23.10
2018-04-19T22:28:53.971Z,22.02
2018-04-19T22:31:21.512Z,23.02
2018-04-19T22:33:49.022Z,21.98
2018-04-19T22:36:16.608Z,22.08
2018-04-19T22:38:44.135Z,24.27
2018-04-19T22:41:12.022Z,22.13
2018-04-19T22:43:39.567Z,22.95
2018-04-19T22:46:07.101Z,22.58
2018-04-19T22:48:35.400Z,23.20
2018-04-19T22:51:02.955Z,20.45
2018-04-19T22:53:30.489Z,20.83
2018-04-19T22:55:58.018Z,21.25
2018-04-19T22:58:26.324Z,19.50
2018-04-19T23:00:53.933Z,20.77
2018-04-19T23:03:21.484Z,19.73
2018-04-19T23:05:49.079Z,20.65
2018-04-19T23:08:16.685Z,21.80
2018-04-19T23:10:44.973Z,20.75
2018-04-19T23:13:13.270Z,20.83
2018-04-19T23:15:40.806Z,20.37
2018-04-19T23:18:09.114Z,20.95
2018-04-19T23:20:36.635Z,20.52
2018-04-19T23:23:05.153Z,21.17
2018-04-19T23:25:32.688Z,20.20
2018-04-19T23:28:00.345Z,21.75
2018-04-19T23:30:27.838Z,21.75
2018-04-19T23:32:55.376Z,20.42
2018-04-19T23:35:22.927Z,21.55
2018-04-19T23:37:51.725Z,20.42
2018-04-19T23:40:19.242Z,20.67
2018-04-19T23:42:46.766Z,23.75
2018-04-19T23:45:14.328Z,23.50
2018-04-19T23:47:41.848Z,21.80
2018-04-19T23:50:10.140Z,24.73
2018-04-19T23:52:37.651Z,22.37
2018-04-19T23:55:05.180Z,22.17
2018-04-19T23:57:33.089Z,22.67
